Time;durP1;ratioP1;P1;durP2;ratioP2;P2;SDS_P1;SDS_P2;PMS_P1;PMS_P2;Temp;Humidity;BMP_temperature;BMP_pressure;BME280_temperature;BME280_humidity;BME280_pressure;Samples;Min_cycle;Max_cycle;Signal;HPM_P1;HPM_P2
2023/09/21 00:01:53;;;;;;;2.47;0.90;;;;;;;;;;5078365;28;20145;-80
2023/09/21 00:04:19;;;;;;;1.95;0.98;;;;;;;;;;5061578;28;20043;-80
2023/09/21 00:06:46;;;;;;;4.75;1.10;;;;;;;;;;5061245;28;20079;-79
2023/09/21 00:09:12;;;;;;;2.88;0.50;;;;;;;;;;5061418;28;20121;-80
2023/09/21 00:11:40;;;;;;;3.20;0.80;;;;;;;;;;5077997;28;20054;-80
2023/09/21 00:14:06;;;;;;;1.77;0.80;;;;;;;;;;5077952;28;20476;-79
2023/09/21 00:16:32;;;;;;;1.50;0.65;;;;;;;;;;5062192;28;20066;-80
2023/09/21 00:18:58;;;;;;;2.90;0.70;;;;;;;;;;5077962;28;20453;-81
2023/09/21 00:21:25;;;;;;;3.20;0.93;;;;;;;;;;5078178;28;20514;-80
2023/09/21 00:23:51;;;;;;;0.85;0.50;;;;;;;;;;5077885;28;20439;-80
2023/09/21 00:26:18;;;;;;;2.20;0.70;;;;;;;;;;5061356;28;20403;-80
2023/09/21 00:28:44;;;;;;;2.72;0.73;;;;;;;;;;5095599;28;20056;-80
2023/09/21 00:31:10;;;;;;;2.35;1.08;;;;;;;;;;5060163;28;20102;-80
2023/09/21 00:33:38;;;;;;;2.20;0.80;;;;;;;;;;5061490;28;20097;-80
2023/09/21 00:36:04;;;;;;;1.88;0.50;;;;;;;;;;5061495;28;20047;-80
2023/09/21 00:38:31;;;;;;;1.88;0.65;;;;;;;;;;5060684;28;20087;-80
2023/09/21 00:40:58;;;;;;;1.67;0.80;;;;;;;;;;5044492;28;20067;-80
2023/09/21 00:43:25;;;;;;;2.30;0.70;;;;;;;;;;5077416;28;20056;-80
2023/09/21 00:45:55;;;;;;;1.33;0.50;;;;;;;;;;5060754;28;20073;-80
2023/09/21 00:48:25;;;;;;;1.77;0.68;;;;;;;;;;5076747;28;20044;-80
2023/09/21 00:50:53;;;;;;;2.67;0.50;;;;;;;;;;5044985;28;20074;-80
2023/09/21 00:53:20;;;;;;;2.75;1.00;;;;;;;;;;5077513;28;20048;-79
2023/09/21 00:55:49;;;;;;;2.20;0.65;;;;;;;;;;5077757;28;20460;-80
2023/09/21 00:58:16;;;;;;;1.20;0.70;;;;;;;;;;5077180;28;20051;-80
2023/09/21 01:00:42;;;;;;;1.83;0.68;;;;;;;;;;5060323;28;20052;-79
2023/09/21 01:03:11;;;;;;;1.58;0.70;;;;;;;;;;5060431;28;20044;-80
2023/09/21 01:05:41;;;;;;;3.00;0.60;;;;;;;;;;5077265;28;20044;-80
2023/09/21 01:08:11;;;;;;;0.93;0.50;;;;;;;;;;5076946;28;20051;-80
2023/09/21 01:10:42;;;;;;;2.25;0.60;;;;;;;;;;5076671;28;20510;-79
2023/09/21 01:13:09;;;;;;;2.25;0.65;;;;;;;;;;5076811;28;20088;-79
2023/09/21 01:15:35;;;;;;;2.00;0.68;;;;;;;;;;5061325;28;20106;-79
2023/09/21 01:18:07;;;;;;;3.85;0.60;;;;;;;;;;5077136;28;20048;-80
2023/09/21 01:20:34;;;;;;;2.00;0.50;;;;;;;;;;5076763;28;20074;-80
2023/09/21 01:23:19;;;;;;;0.98;0.52;;;;;;;;;;5059892;28;20503;-80
2023/09/21 01:25:46;;;;;;;1.45;0.70;;;;;;;;;;5076953;28;20055;-80
2023/09/21 01:28:19;;;;;;;2.40;0.77;;;;;;;;;;5075982;28;20044;-80
2023/09/21 01:30:45;;;;;;;2.20;0.60;;;;;;;;;;5060713;28;20372;-80
2023/09/21 01:33:12;;;;;;;3.35;0.50;;;;;;;;;;5059876;28;20048;-79
2023/09/21 01:35:38;;;;;;;2.88;0.40;;;;;;;;;;5059573;28;20135;-80
2023/09/21 01:38:06;;;;;;;1.73;0.60;;;;;;;;;;5060750;28;20040;-79
2023/09/21 01:40:34;;;;;;;1.00;0.60;;;;;;;;;;5059531;28;20150;-80
2023/09/21 01:43:03;;;;;;;1.95;0.60;;;;;;;;;;5076112;28;20084;-80
2023/09/21 01:45:30;;;;;;;1.73;0.77;;;;;;;;;;5077181;28;20056;-80
2023/09/21 01:47:56;;;;;;;1.20;0.63;;;;;;;;;;5059523;28;20040;-80
2023/09/21 01:50:24;;;;;;;2.72;0.40;;;;;;;;;;5094224;28;20047;-80
2023/09/21 01:52:50;;;;;;;1.27;0.60;;;;;;;;;;5059938;28;20613;-80
2023/09/21 01:55:17;;;;;;;1.52;0.70;;;;;;;;;;5076294;28;20087;-80
2023/09/21 01:57:45;;;;;;;1.92;0.47;;;;;;;;;;5076236;28;20040;-80
2023/09/21 02:00:22;;;;;;;3.17;0.68;;;;;;;;;;5075570;28;20408;-81
2023/09/21 02:02:49;;;;;;;1.88;0.65;;;;;;;;;;5076922;28;20044;-81
2023/09/21 02:05:15;;;;;;;2.25;0.60;;;;;;;;;;5094509;28;20048;-81
2023/09/21 02:07:43;;;;;;;1.35;0.40;;;;;;;;;;5075831;28;20039;-81
2023/09/21 02:10:11;;;;;;;4.22;0.65;;;;;;;;;;5059604;28;20054;-80
2023/09/21 02:12:38;;;;;;;1.23;0.50;;;;;;;;;;5059126;28;20131;-80
2023/09/21 02:15:12;;;;;;;1.48;0.65;;;;;;;;;;5076727;28;20056;-80
2023/09/21 02:17:41;;;;;;;1.48;0.60;;;;;;;;;;5075921;28;20056;-80
2023/09/21 02:20:15;;;;;;;1.42;0.40;;;;;;;;;;5059140;28;20036;-81
2023/09/21 02:22:45;;;;;;;3.45;0.70;;;;;;;;;;5094442;28;20048;-81
2023/09/21 02:25:12;;;;;;;0.85;0.43;;;;;;;;;;5075913;28;20059;-81
2023/09/21 02:27:39;;;;;;;3.00;0.57;;;;;;;;;;5075546;28;20051;-80
2023/09/21 02:30:06;;;;;;;2.00;0.50;;;;;;;;;;5059035;28;20499;-81
2023/09/21 02:32:33;;;;;;;1.55;0.50;;;;;;;;;;5059834;28;20052;-81
2023/09/21 02:35:03;;;;;;;2.30;0.65;;;;;;;;;;5058998;28;20052;-80
2023/09/21 02:37:29;;;;;;;1.67;0.57;;;;;;;;;;5075228;28;20055;-80
2023/09/21 02:39:55;;;;;;;3.33;0.50;;;;;;;;;;5075428;28;20036;-80
2023/09/21 02:42:22;;;;;;;1.65;0.52;;;;;;;;;;5058999;28;20052;-81
2023/09/21 02:44:48;;;;;;;0.80;0.52;;;;;;;;;;5094031;28;20496;-81
2023/09/21 02:47:14;;;;;;;0.82;0.45;;;;;;;;;;5075475;28;20075;-80
2023/09/21 02:49:40;;;;;;;2.72;0.60;;;;;;;;;;5075920;28;20143;-80
2023/09/21 02:52:06;;;;;;;2.85;0.70;;;;;;;;;;5075641;28;20131;-79
2023/09/21 02:54:32;;;;;;;1.15;0.45;;;;;;;;;;5078392;28;20048;-79
2023/09/21 02:56:59;;;;;;;1.77;0.40;;;;;;;;;;5062880;28;20086;-79
2023/09/21 02:59:28;;;;;;;2.05;0.60;;;;;;;;;;5041048;28;20446;-79
2023/09/21 03:01:54;;;;;;;1.13;0.70;;;;;;;;;;5043634;28;20052;-79
2023/09/21 03:04:21;;;;;;;1.00;0.60;;;;;;;;;;5059212;28;20059;-80
2023/09/21 03:06:47;;;;;;;1.05;0.52;;;;;;;;;;5059159;28;20396;-79
2023/09/21 03:09:14;;;;;;;2.78;0.60;;;;;;;;;;5042904;28;20063;-79
2023/09/21 03:11:40;;;;;;;2.85;0.60;;;;;;;;;;5059396;28;20053;-80
2023/09/21 03:14:06;;;;;;;3.22;0.55;;;;;;;;;;5042154;28;20049;-79
2023/09/21 03:16:33;;;;;;;1.98;0.68;;;;;;;;;;5059123;28;20045;-80
2023/09/21 03:18:59;;;;;;;2.25;0.50;;;;;;;;;;5059793;28;20127;-80
2023/09/21 03:21:25;;;;;;;0.95;0.50;;;;;;;;;;5059255;28;20041;-80
2023/09/21 03:23:52;;;;;;;1.75;0.60;;;;;;;;;;5058879;28;20557;-80
2023/09/21 03:26:19;;;;;;;2.45;0.50;;;;;;;;;;5059596;28;20131;-80
2023/09/21 03:28:47;;;;;;;2.22;0.60;;;;;;;;;;5058597;28;20048;-80
2023/09/21 03:31:13;;;;;;;0.73;0.30;;;;;;;;;;5058265;28;20052;-80
2023/09/21 03:33:40;;;;;;;1.35;0.60;;;;;;;;;;5041926;28;20044;-80
2023/09/21 03:36:06;;;;;;;1.75;0.50;;;;;;;;;;5025970;28;20055;-79
2023/09/21 03:38:32;;;;;;;2.63;0.63;;;;;;;;;;5025547;28;20070;-81
2023/09/21 03:40:58;;;;;;;2.50;0.60;;;;;;;;;;5025546;28;20114;-81
2023/09/21 03:43:25;;;;;;;1.20;0.60;;;;;;;;;;5058527;28;20052;-80
2023/09/21 03:45:52;;;;;;;1.25;0.52;;;;;;;;;;5058524;28;20110;-80
2023/09/21 03:48:18;;;;;;;2.03;0.60;;;;;;;;;;5041149;28;20047;-81
2023/09/21 03:50:49;;;;;;;4.03;0.70;;;;;;;;;;5041668;28;20083;-80
2023/09/21 03:53:15;;;;;;;2.58;0.45;;;;;;;;;;5058362;28;20393;-79
2023/09/21 03:55:41;;;;;;;2.33;0.65;;;;;;;;;;5041797;28;20048;-80
2023/09/21 03:58:08;;;;;;;1.27;0.45;;;;;;;;;;5058001;28;20509;-80
2023/09/21 04:03:01;;;;;;;2.08;0.52;;;;;;;;;;5078674;28;20476;-80
2023/09/21 04:05:30;;;;;;;2.92;0.77;;;;;;;;;;5077791;28;20044;-79
2023/09/21 04:07:56;;;;;;;1.85;0.55;;;;;;;;;;5061824;28;20040;-80
2023/09/21 04:10:22;;;;;;;1.60;0.70;;;;;;;;;;5044970;28;20066;-80
2023/09/21 04:12:50;;;;;;;1.13;0.60;;;;;;;;;;5078849;28;20083;-79
2023/09/21 04:15:17;;;;;;;1.65;0.52;;;;;;;;;;5078835;28;20353;-80
2023/09/21 04:17:43;;;;;;;3.28;0.50;;;;;;;;;;5077973;28;20083;-80
2023/09/21 04:20:11;;;;;;;2.63;0.60;;;;;;;;;;5078806;28;20040;-81
2023/09/21 04:22:41;;;;;;;1.73;0.68;;;;;;;;;;5077929;28;20048;-80
2023/09/21 04:25:09;;;;;;;2.83;0.98;;;;;;;;;;5077791;28;20127;-81
2023/09/21 04:27:36;;;;;;;1.77;0.50;;;;;;;;;;5077573;28;20089;-80
2023/09/21 04:30:03;;;;;;;2.08;0.63;;;;;;;;;;5077711;28;20127;-80
2023/09/21 04:32:29;;;;;;;1.75;0.68;;;;;;;;;;5077377;28;20080;-80
2023/09/21 04:34:58;;;;;;;0.93;0.50;;;;;;;;;;5077627;28;20044;-80
2023/09/21 04:37:24;;;;;;;1.15;0.60;;;;;;;;;;5061277;28;20073;-81
2023/09/21 04:39:50;;;;;;;2.92;0.52;;;;;;;;;;5077760;28;20044;-80
2023/09/21 04:42:18;;;;;;;1.75;0.55;;;;;;;;;;5077447;28;20097;-81
2023/09/21 04:44:44;;;;;;;1.58;0.60;;;;;;;;;;5060985;28;20055;-81
2023/09/21 04:47:10;;;;;;;2.05;0.60;;;;;;;;;;5060436;28;20069;-81
2023/09/21 04:49:39;;;;;;;2.30;0.65;;;;;;;;;;5044171;28;20048;-80
2023/09/21 04:52:05;;;;;;;1.00;0.55;;;;;;;;;;5077183;28;20051;-80
2023/09/21 04:54:32;;;;;;;0.88;0.47;;;;;;;;;;5078086;28;20423;-80
2023/09/21 04:56:58;;;;;;;1.77;0.50;;;;;;;;;;5076936;28;20131;-80
2023/09/21 04:59:24;;;;;;;1.90;0.73;;;;;;;;;;5076814;28;20060;-81
2023/09/21 05:01:50;;;;;;;1.63;0.60;;;;;;;;;;5060889;28;20055;-81
2023/09/21 05:04:18;;;;;;;2.50;0.50;;;;;;;;;;5077049;28;20055;-81
2023/09/21 05:06:45;;;;;;;2.83;0.50;;;;;;;;;;5060143;28;20044;-80
2023/09/21 05:09:11;;;;;;;0.95;0.50;;;;;;;;;;5060314;28;20498;-80
2023/09/21 05:11:38;;;;;;;2.67;0.60;;;;;;;;;;5077002;28;20050;-80
2023/09/21 05:14:12;;;;;;;1.45;0.60;;;;;;;;;;5076815;28;20131;-80
2023/09/21 05:16:38;;;;;;;3.42;0.80;;;;;;;;;;5076788;28;20052;-80
2023/09/21 05:19:05;;;;;;;3.25;0.70;;;;;;;;;;5044485;28;20052;-80
2023/09/21 05:21:31;;;;;;;1.35;0.50;;;;;;;;;;5076747;28;20151;-80
2023/09/21 05:23:57;;;;;;;3.95;0.60;;;;;;;;;;5077355;28;20368;-80
2023/09/21 05:26:23;;;;;;;2.47;0.90;;;;;;;;;;5076444;28;20097;-80
2023/09/21 05:28:49;;;;;;;1.35;0.63;;;;;;;;;;5076580;28;20491;-80
2023/09/21 05:31:15;;;;;;;1.13;0.50;;;;;;;;;;5076474;28;20146;-81
2023/09/21 05:33:41;;;;;;;1.67;0.55;;;;;;;;;;5076415;28;20501;-80
2023/09/21 05:36:08;;;;;;;3.75;0.70;;;;;;;;;;5060451;28;20052;-81
2023/09/21 05:38:34;;;;;;;2.75;0.93;;;;;;;;;;5059532;28;20225;-81
2023/09/21 05:41:04;;;;;;;1.20;0.70;;;;;;;;;;5076313;28;20052;-81
2023/09/21 05:43:30;;;;;;;2.55;0.77;;;;;;;;;;5076256;28;20092;-80
2023/09/21 05:45:57;;;;;;;1.55;0.60;;;;;;;;;;5076249;28;20480;-79
2023/09/21 05:48:23;;;;;;;1.08;0.60;;;;;;;;;;5075962;28;20040;-80
2023/09/21 05:50:49;;;;;;;3.00;0.65;;;;;;;;;;5076100;28;20404;-80
2023/09/21 05:53:15;;;;;;;3.67;0.50;;;;;;;;;;5059996;28;20079;-80
2023/09/21 05:55:45;;;;;;;1.60;0.50;;;;;;;;;;5076402;28;20044;-80
2023/09/21 05:58:11;;;;;;;2.65;0.60;;;;;;;;;;5059206;28;20040;-81
2023/09/21 06:00:37;;;;;;;2.88;0.60;;;;;;;;;;5076417;28;20104;-80
2023/09/21 06:03:03;;;;;;;1.52;0.60;;;;;;;;;;5059699;28;20493;-80
2023/09/21 06:05:30;;;;;;;4.38;0.60;;;;;;;;;;5076001;28;20090;-80
2023/09/21 06:07:56;;;;;;;1.95;0.73;;;;;;;;;;5076118;28;20048;-80
2023/09/21 06:10:25;;;;;;;1.95;0.60;;;;;;;;;;5059369;28;20044;-80
2023/09/21 06:12:52;;;;;;;1.45;0.73;;;;;;;;;;5060028;28;20132;-80
2023/09/21 06:15:18;;;;;;;0.93;0.60;;;;;;;;;;5059520;28;20051;-80
2023/09/21 06:17:46;;;;;;;1.85;0.63;;;;;;;;;;5060129;28;20056;-80
2023/09/21 06:20:12;;;;;;;1.52;0.80;;;;;;;;;;5059080;28;20097;-79
2023/09/21 06:22:38;;;;;;;2.63;1.00;;;;;;;;;;5075897;28;20044;-79
2023/09/21 06:25:06;;;;;;;1.77;0.73;;;;;;;;;;5075547;28;20066;-80
2023/09/21 06:27:33;;;;;;;3.92;0.68;;;;;;;;;;5059808;28;20036;-80
2023/09/21 06:29:59;;;;;;;2.33;0.80;;;;;;;;;;5097223;28;20059;-80
2023/09/21 06:32:25;;;;;;;4.85;0.60;;;;;;;;;;5080781;28;20075;-80
2023/09/21 06:34:52;;;;;;;2.92;0.60;;;;;;;;;;5079880;28;20044;-80
2023/09/21 06:37:22;;;;;;;2.25;0.70;;;;;;;;;;5063244;28;20121;-80
2023/09/21 06:39:48;;;;;;;2.20;0.70;;;;;;;;;;5064097;28;20044;-80
2023/09/21 06:42:17;;;;;;;2.85;0.75;;;;;;;;;;5079651;28;20048;-80
2023/09/21 06:44:43;;;;;;;2.10;0.55;;;;;;;;;;5079617;28;20438;-81
2023/09/21 06:47:12;;;;;;;2.70;0.70;;;;;;;;;;5079498;28;20046;-80
2023/09/21 06:49:39;;;;;;;2.67;0.52;;;;;;;;;;5079495;28;20058;-80
2023/09/21 06:52:05;;;;;;;2.47;1.05;;;;;;;;;;5046046;28;20056;-80
2023/09/21 06:54:31;;;;;;;2.45;0.68;;;;;;;;;;5080419;28;20080;-79
2023/09/21 06:57:03;;;;;;;1.02;0.50;;;;;;;;;;5080434;28;20052;-80
2023/09/21 06:59:34;;;;;;;2.40;0.70;;;;;;;;;;5079399;28;20555;-80
2023/09/21 07:02:00;;;;;;;1.90;0.60;;;;;;;;;;5063460;28;20048;-80
2023/09/21 07:04:28;;;;;;;4.60;0.65;;;;;;;;;;5062848;28;20105;-79
2023/09/21 07:06:54;;;;;;;3.15;0.80;;;;;;;;;;5046170;28;20156;-80
2023/09/21 07:09:21;;;;;;;3.35;0.70;;;;;;;;;;5062610;28;20051;-80
2023/09/21 07:11:49;;;;;;;1.73;0.82;;;;;;;;;;5079864;28;20468;-80
2023/09/21 07:14:15;;;;;;;2.25;0.57;;;;;;;;;;5062480;28;20051;-80
2023/09/21 07:16:41;;;;;;;3.33;0.63;;;;;;;;;;5079238;28;20109;-80
2023/09/21 07:19:08;;;;;;;2.90;0.82;;;;;;;;;;5062490;28;20108;-80
2023/09/21 07:21:34;;;;;;;3.28;0.93;;;;;;;;;;5062493;28;20058;-80
2023/09/21 07:24:00;;;;;;;3.13;0.40;;;;;;;;;;5078822;28;20051;-80
2023/09/21 07:26:26;;;;;;;3.67;0.73;;;;;;;;;;5078637;28;20037;-80
2023/09/21 07:28:53;;;;;;;1.48;0.60;;;;;;;;;;5078984;28;20050;-80
2023/09/21 07:31:19;;;;;;;2.25;0.75;;;;;;;;;;5062526;28;20124;-80
2023/09/21 07:33:45;;;;;;;2.70;0.80;;;;;;;;;;5079202;28;20048;-81
2023/09/21 07:36:13;;;;;;;1.35;0.75;;;;;;;;;;5079614;28;20040;-80
2023/09/21 07:38:39;;;;;;;3.85;1.00;;;;;;;;;;5062330;28;20048;-80
2023/09/21 07:41:06;;;;;;;2.40;0.93;;;;;;;;;;5078422;28;20069;-80
2023/09/21 07:43:33;;;;;;;1.95;0.73;;;;;;;;;;5078886;28;20157;-80
2023/09/21 07:45:59;;;;;;;3.78;1.00;;;;;;;;;;5078913;28;20408;-80
2023/09/21 07:48:27;;;;;;;1.42;0.90;;;;;;;;;;5045387;28;20090;-80
2023/09/21 07:50:55;;;;;;;2.58;0.85;;;;;;;;;;5078821;28;20431;-80
2023/09/21 07:53:21;;;;;;;2.72;0.90;;;;;;;;;;5061997;28;20139;-80
2023/09/21 07:55:57;;;;;;;1.58;0.90;;;;;;;;;;5062067;28;20123;-80
2023/09/21 07:58:23;;;;;;;1.38;0.85;;;;;;;;;;5079293;28;20044;-80
2023/09/21 08:00:49;;;;;;;2.90;0.70;;;;;;;;;;5062262;28;20134;-80
2023/09/21 08:03:16;;;;;;;2.40;0.65;;;;;;;;;;5078299;28;20055;-80
2023/09/21 08:05:42;;;;;;;2.88;1.08;;;;;;;;;;5078250;28;20048;-80
2023/09/21 08:08:08;;;;;;;3.40;0.90;;;;;;;;;;5077895;28;20043;-80
2023/09/21 08:10:34;;;;;;;2.33;1.05;;;;;;;;;;5077866;28;20048;-80
2023/09/21 08:13:01;;;;;;;1.98;0.90;;;;;;;;;;5078018;28;20051;-80
2023/09/21 08:15:28;;;;;;;1.70;0.90;;;;;;;;;;5095980;28;20048;-80
2023/09/21 08:17:54;;;;;;;1.05;0.70;;;;;;;;;;5078047;28;20714;-80
2023/09/21 08:20:22;;;;;;;4.10;0.88;;;;;;;;;;5078820;28;20074;-80
2023/09/21 08:22:49;;;;;;;4.43;1.08;;;;;;;;;;5060899;28;20139;-80
2023/09/21 08:25:15;;;;;;;2.58;0.90;;;;;;;;;;5060840;28;20540;-80
2023/09/21 08:27:41;;;;;;;2.50;1.10;;;;;;;;;;5060591;28;20076;-80
2023/09/21 08:30:09;;;;;;;3.65;1.23;;;;;;;;;;5078335;28;20410;-80
2023/09/21 08:32:35;;;;;;;2.20;0.95;;;;;;;;;;5077445;28;20131;-79
2023/09/21 08:35:01;;;;;;;3.58;1.35;;;;;;;;;;5077652;28;20051;-80
2023/09/21 08:37:28;;;;;;;3.28;1.27;;;;;;;;;;5077918;28;20101;-80
2023/09/21 08:39:54;;;;;;;3.35;1.63;;;;;;;;;;5077841;28;20067;-80
2023/09/21 08:42:21;;;;;;;4.05;1.40;;;;;;;;;;5044352;28;20048;-81
2023/09/21 08:44:47;;;;;;;3.67;1.20;;;;;;;;;;5077534;28;20408;-80
2023/09/21 08:47:14;;;;;;;3.58;1.38;;;;;;;;;;5060627;28;20044;-80
2023/09/21 08:49:43;;;;;;;3.40;1.20;;;;;;;;;;5060754;28;20090;-80
2023/09/21 08:52:09;;;;;;;1.45;1.20;;;;;;;;;;5076860;28;20369;-80
2023/09/21 08:54:46;;;;;;;3.45;1.30;;;;;;;;;;5078095;28;20139;-80
2023/09/21 08:57:13;;;;;;;4.10;1.17;;;;;;;;;;5095175;28;20084;-80
2023/09/21 08:59:42;;;;;;;3.03;1.35;;;;;;;;;;5076812;28;20126;-81
2023/09/21 09:02:10;;;;;;;2.30;1.35;;;;;;;;;;5076424;28;20052;-80
2023/09/21 09:04:36;;;;;;;1.67;1.00;;;;;;;;;;5095211;28;20052;-80
2023/09/21 09:07:03;;;;;;;3.72;1.30;;;;;;;;;;5076795;28;20040;-80
2023/09/21 09:09:29;;;;;;;2.45;1.08;;;;;;;;;;5077028;28;20055;-80
2023/09/21 09:11:55;;;;;;;6.78;1.40;;;;;;;;;;5077798;28;20052;-80
2023/09/21 09:14:21;;;;;;;1.00;0.90;;;;;;;;;;5076843;28;20051;-80
2023/09/21 09:16:47;;;;;;;2.05;1.02;;;;;;;;;;5060564;28;20044;-80
2023/09/21 09:19:13;;;;;;;1.10;1.00;;;;;;;;;;5077064;28;20044;-79
2023/09/21 09:21:44;;;;;;;2.17;0.80;;;;;;;;;;5077030;28;20090;-80
2023/09/21 09:24:14;;;;;;;1.10;0.93;;;;;;;;;;5060187;28;20083;-80
2023/09/21 09:26:41;;;;;;;1.25;0.80;;;;;;;;;;5076266;28;20079;-80
2023/09/21 09:29:08;;;;;;;1.50;1.20;;;;;;;;;;5094578;28;20048;-80
2023/09/21 09:31:37;;;;;;;2.20;1.27;;;;;;;;;;5077121;28;20538;-80
2023/09/21 09:34:04;;;;;;;3.75;1.48;;;;;;;;;;5076528;28;20041;-80
2023/09/21 09:36:32;;;;;;;3.50;1.23;;;;;;;;;;5076459;28;20119;-80
2023/09/21 09:39:00;;;;;;;2.80;1.45;;;;;;;;;;5060314;28;20097;-80
2023/09/21 09:41:27;;;;;;;4.07;1.50;;;;;;;;;;5076654;28;20101;-80
2023/09/21 09:43:54;;;;;;;3.08;1.67;;;;;;;;;;5059369;28;20603;-81
2023/09/21 09:46:23;;;;;;;3.20;1.60;;;;;;;;;;5076554;28;20488;-80
2023/09/21 09:48:51;;;;;;;5.50;1.75;;;;;;;;;;5043868;28;20048;-80
2023/09/21 09:51:23;;;;;;;2.95;1.63;;;;;;;;;;5060520;28;20047;-80
2023/09/21 09:53:51;;;;;;;3.70;2.15;;;;;;;;;;5076612;28;20051;-81
2023/09/21 09:56:18;;;;;;;2.85;1.80;;;;;;;;;;5060316;28;20052;-80
2023/09/21 09:58:44;;;;;;;3.05;1.88;;;;;;;;;;5076487;28;20052;-80
2023/09/21 10:01:12;;;;;;;2.40;1.45;;;;;;;;;;5073804;28;20060;-80
2023/09/21 10:03:39;;;;;;;1.65;1.50;;;;;;;;;;5056064;28;20099;-80
2023/09/21 10:06:08;;;;;;;4.32;2.33;;;;;;;;;;5056024;28;20051;-80
2023/09/21 10:08:38;;;;;;;2.20;1.63;;;;;;;;;;5055953;28;20048;-81
2023/09/21 10:11:06;;;;;;;3.45;1.73;;;;;;;;;;5073417;28;20520;-80
2023/09/21 10:13:35;;;;;;;3.38;2.03;;;;;;;;;;5055846;28;20053;-80
2023/09/21 10:16:05;;;;;;;1.92;1.52;;;;;;;;;;5039317;28;20050;-80
2023/09/21 10:18:40;;;;;;;4.05;1.90;;;;;;;;;;5056080;28;20056;-80
2023/09/21 10:21:26;;;;;;;2.58;2.10;;;;;;;;;;5055838;28;20055;-80
2023/09/21 10:24:04;;;;;;;2.90;1.88;;;;;;;;;;5042018;28;20044;-80
2023/09/21 10:26:33;;;;;;;3.28;2.15;;;;;;;;;;5039497;28;20052;-80
2023/09/21 10:29:03;;;;;;;2.78;2.28;;;;;;;;;;5055436;28;20132;-80
2023/09/21 10:31:31;;;;;;;2.47;2.17;;;;;;;;;;5039809;28;20476;-80
2023/09/21 10:33:57;;;;;;;3.53;3.05;;;;;;;;;;5055776;28;20055;-80
2023/09/21 10:36:23;;;;;;;4.60;2.72;;;;;;;;;;5055456;28;20084;-81
2023/09/21 10:39:10;;;;;;;4.10;3.22;;;;;;;;;;5039140;28;20102;-80
2023/09/21 10:41:40;;;;;;;3.38;3.08;;;;;;;;;;5055942;28;20074;-80
2023/09/21 10:44:07;;;;;;;5.80;3.72;;;;;;;;;;5055641;28;20127;-81
2023/09/21 10:46:39;;;;;;;3.67;3.30;;;;;;;;;;5055504;28;20052;-81
2023/09/21 10:49:11;;;;;;;3.40;3.20;;;;;;;;;;5040188;28;20045;-81
2023/09/21 10:51:41;;;;;;;5.68;3.60;;;;;;;;;;5055926;28;20392;-82
2023/09/21 10:54:07;;;;;;;4.75;3.15;;;;;;;;;;5055223;28;20162;-81
2023/09/21 10:56:37;;;;;;;4.55;3.85;;;;;;;;;;5055747;28;20094;-80
2023/09/21 10:59:03;;;;;;;4.25;3.78;;;;;;;;;;5055201;28;20056;-81
2023/09/21 11:01:30;;;;;;;4.28;3.97;;;;;;;;;;5060356;28;20056;-81
2023/09/21 11:03:58;;;;;;;5.18;3.55;;;;;;;;;;5075776;28;20040;-81
2023/09/21 11:06:26;;;;;;;5.32;4.13;;;;;;;;;;5093786;28;20080;-81
2023/09/21 11:08:55;;;;;;;4.47;3.88;;;;;;;;;;5075417;28;20457;-81
2023/09/21 11:11:21;;;;;;;7.13;3.65;;;;;;;;;;5075334;28;20536;-81
2023/09/21 11:13:54;;;;;;;6.80;4.20;;;;;;;;;;5059150;28;20040;-81
2023/09/21 11:16:21;;;;;;;3.38;2.35;;;;;;;;;;5062517;28;20048;-81
2023/09/21 11:18:48;;;;;;;2.38;1.10;;;;;;;;;;5079343;28;20094;-81
2023/09/21 11:21:16;;;;;;;1.88;1.05;;;;;;;;;;5063207;28;20048;-81
2023/09/21 11:23:43;;;;;;;1.73;1.00;;;;;;;;;;5062415;28;20044;-80
2023/09/21 11:26:14;;;;;;;1.30;0.80;;;;;;;;;;5078961;28;20373;-81
2023/09/21 11:28:41;;;;;;;0.70;0.50;;;;;;;;;;5063011;28;20090;-81
2023/09/21 11:31:08;;;;;;;0.98;0.40;;;;;;;;;;5061882;28;20055;-81
2023/09/21 11:33:34;;;;;;;1.10;0.40;;;;;;;;;;5062202;28;20059;-81
2023/09/21 11:36:05;;;;;;;0.70;0.40;;;;;;;;;;5062322;28;20047;-81
2023/09/21 11:38:34;;;;;;;0.88;0.38;;;;;;;;;;5078822;28;20051;-81
2023/09/21 11:41:00;;;;;;;1.23;0.38;;;;;;;;;;5062175;28;20052;-81
2023/09/21 11:43:26;;;;;;;0.40;0.30;;;;;;;;;;5078513;28;20047;-81
2023/09/21 11:45:52;;;;;;;0.98;0.50;;;;;;;;;;5062295;28;20380;-81
2023/09/21 11:48:21;;;;;;;2.78;0.45;;;;;;;;;;5061679;28;20043;-81
2023/09/21 11:50:51;;;;;;;0.70;0.40;;;;;;;;;;5078267;28;20063;-81
2023/09/21 11:53:19;;;;;;;1.52;0.40;;;;;;;;;;5078550;28;20040;-81
2023/09/21 11:55:46;;;;;;;0.75;0.32;;;;;;;;;;5079412;28;20439;-81
2023/09/21 11:58:15;;;;;;;0.90;0.30;;;;;;;;;;5061483;28;20127;-81
2023/09/21 12:00:45;;;;;;;0.82;0.40;;;;;;;;;;5061692;28;20043;-81
2023/09/21 12:03:15;;;;;;;0.60;0.35;;;;;;;;;;5077548;28;20060;-80
2023/09/21 12:05:45;;;;;;;1.85;0.40;;;;;;;;;;5079180;28;20047;-81
2023/09/21 12:08:13;;;;;;;3.13;0.40;;;;;;;;;;5078773;28;20097;-81
2023/09/21 12:10:40;;;;;;;0.70;0.50;;;;;;;;;;5062216;28;20040;-81
2023/09/21 12:13:07;;;;;;;0.70;0.50;;;;;;;;;;5061469;28;20050;-80
2023/09/21 12:15:33;;;;;;;1.52;0.57;;;;;;;;;;5078488;28;20098;-80
2023/09/21 12:18:01;;;;;;;1.20;0.57;;;;;;;;;;5078140;28;20048;-79
2023/09/21 12:20:27;;;;;;;0.70;0.70;;;;;;;;;;5061751;28;20394;-81
2023/09/21 12:22:53;;;;;;;1.10;0.40;;;;;;;;;;5078314;28;20044;-81
2023/09/21 12:25:20;;;;;;;0.50;0.30;;;;;;;;;;5061141;28;20151;-81
2023/09/21 12:27:47;;;;;;;2.17;0.47;;;;;;;;;;5076835;28;20550;-81
2023/09/21 12:30:14;;;;;;;1.08;0.30;;;;;;;;;;5077942;28;20089;-81
2023/09/21 12:32:41;;;;;;;1.08;0.30;;;;;;;;;;5061100;28;20051;-81
2023/09/21 12:35:08;;;;;;;1.85;0.20;;;;;;;;;;5077472;28;20484;-81
2023/09/21 12:37:36;;;;;;;0.45;0.20;;;;;;;;;;5077579;28;20048;-81
2023/09/21 12:40:12;;;;;;;0.35;0.20;;;;;;;;;;5078552;28;20132;-80
2023/09/21 12:42:42;;;;;;;0.40;0.10;;;;;;;;;;5061721;28;20047;-81
2023/09/21 12:45:11;;;;;;;0.25;0.10;;;;;;;;;;5077252;28;20048;-81
2023/09/21 12:47:41;;;;;;;0.43;0.13;;;;;;;;;;5045068;28;20363;-81
2023/09/21 12:50:08;;;;;;;0.70;0.20;;;;;;;;;;5077480;28;20432;-81
2023/09/21 12:52:36;;;;;;;0.40;0.17;;;;;;;;;;5077804;28;20434;-81
2023/09/21 12:55:05;;;;;;;0.50;0.10;;;;;;;;;;5077298;28;20055;-81
2023/09/21 12:57:34;;;;;;;0.35;0.20;;;;;;;;;;5077309;28;20087;-81
2023/09/21 13:00:00;;;;;;;0.40;0.20;;;;;;;;;;5077193;28;20073;-81
2023/09/21 13:02:26;;;;;;;0.35;0.17;;;;;;;;;;5076889;28;20525;-81
2023/09/21 13:04:59;;;;;;;1.00;0.20;;;;;;;;;;5077454;28;20052;-81
2023/09/21 13:07:26;;;;;;;2.13;0.25;;;;;;;;;;5077821;28;20048;-81
2023/09/21 13:09:52;;;;;;;0.52;0.20;;;;;;;;;;5076785;28;20133;-81
2023/09/21 13:12:19;;;;;;;1.13;0.30;;;;;;;;;;5077081;28;20475;-81
2023/09/21 13:14:45;;;;;;;0.57;0.20;;;;;;;;;;5076968;28;20087;-81
2023/09/21 13:17:11;;;;;;;0.43;0.20;;;;;;;;;;5077690;28;20051;-81
2023/09/21 13:19:37;;;;;;;0.68;0.30;;;;;;;;;;5060006;28;20499;-81
2023/09/21 13:22:04;;;;;;;1.00;0.20;;;;;;;;;;5060247;28;20066;-81
2023/09/21 13:24:30;;;;;;;0.70;0.20;;;;;;;;;;5076700;28;20044;-81
2023/09/21 13:26:56;;;;;;;1.65;0.30;;;;;;;;;;5044049;28;20468;-81
2023/09/21 13:29:22;;;;;;;0.52;0.20;;;;;;;;;;5060963;28;20050;-81
2023/09/21 13:31:48;;;;;;;0.73;0.20;;;;;;;;;;5059802;28;20040;-81
2023/09/21 13:34:14;;;;;;;0.35;0.20;;;;;;;;;;5076655;28;20497;-81
2023/09/21 13:36:40;;;;;;;0.40;0.20;;;;;;;;;;5076467;28;20132;-82
2023/09/21 13:39:08;;;;;;;0.20;0.10;;;;;;;;;;5076313;28;20097;-81
2023/09/21 13:41:34;;;;;;;0.50;0.13;;;;;;;;;;5059860;28;20504;-82
2023/09/21 13:44:00;;;;;;;0.30;0.10;;;;;;;;;;5076420;28;20051;-81
2023/09/21 13:46:26;;;;;;;0.75;0.10;;;;;;;;;;5076650;28;20369;-81
2023/09/21 13:48:52;;;;;;;0.40;0.13;;;;;;;;;;5076677;28;20056;-81
2023/09/21 13:51:18;;;;;;;0.52;0.10;;;;;;;;;;5077185;28;20043;-81
2023/09/21 13:53:44;;;;;;;0.30;0.10;;;;;;;;;;5043120;28;20053;-81
2023/09/21 13:56:11;;;;;;;0.95;0.10;;;;;;;;;;5075992;28;20507;-81
2023/09/21 13:58:38;;;;;;;1.25;0.10;;;;;;;;;;5043206;28;20043;-81
2023/09/21 14:01:04;;;;;;;0.30;0.10;;;;;;;;;;5076996;28;20044;-81
2023/09/21 14:03:31;;;;;;;0.55;0.10;;;;;;;;;;5075451;28;20141;-81
2023/09/21 14:05:58;;;;;;;0.30;0.10;;;;;;;;;;5060079;28;20055;-81
2023/09/21 14:08:24;;;;;;;1.08;0.20;;;;;;;;;;5059526;28;20048;-81
2023/09/21 14:10:50;;;;;;;1.45;0.20;;;;;;;;;;5060263;28;20048;-81
2023/09/21 14:13:17;;;;;;;1.13;0.20;;;;;;;;;;5059052;28;20090;-81
2023/09/21 14:15:44;;;;;;;0.17;0.10;;;;;;;;;;5042884;28;20074;-81
2023/09/21 14:18:11;;;;;;;0.32;0.10;;;;;;;;;;5059708;28;20483;-80
2023/09/21 14:20:37;;;;;;;0.30;0.10;;;;;;;;;;5075992;28;20048;-81
2023/09/21 14:23:03;;;;;;;0.17;0.10;;;;;;;;;;5075950;28;20530;-80
2023/09/21 14:25:29;;;;;;;0.50;0.10;;;;;;;;;;5075977;28;20044;-81
2023/09/21 14:27:56;;;;;;;0.40;0.20;;;;;;;;;;5058694;28;20040;-81
2023/09/21 14:30:22;;;;;;;0.50;0.20;;;;;;;;;;5058828;28;20079;-80
2023/09/21 14:32:52;;;;;;;0.60;0.13;;;;;;;;;;5059489;28;20062;-80
2023/09/21 14:35:18;;;;;;;0.50;0.10;;;;;;;;;;5059478;28;20051;-80
2023/09/21 14:37:44;;;;;;;0.70;0.20;;;;;;;;;;5075787;28;20165;-80
2023/09/21 14:40:11;;;;;;;0.20;0.10;;;;;;;;;;5075816;28;20040;-80
2023/09/21 14:42:38;;;;;;;1.30;0.20;;;;;;;;;;5059800;28;20396;-81
2023/09/21 14:45:05;;;;;;;0.57;0.20;;;;;;;;;;5075984;28;20055;-80
2023/09/21 14:47:33;;;;;;;1.38;0.20;;;;;;;;;;5075826;28;20129;-81